Time;durP1;ratioP1;P1;durP2;ratioP2;P2;SDS_P1;SDS_P2;PMS_P1;PMS_P2;Temp;Humidity;BMP_temperature;BMP_pressure;BME280_temperature;BME280_humidity;BME280_pressure;Samples;Min_cycle;Max_cycle;Signal;HPM_P1;HPM_P2
2023/08/16 00:00:56;;;;;;;8.82;3.55;;;;;;;;;;5029823;28;20047;-85
2023/08/16 00:03:21;;;;;;;6.68;3.10;;;;;;;;;;5031379;28;20057;-84
2023/08/16 00:05:47;;;;;;;6.30;3.40;;;;;;;;;;5030356;28;20053;-84
2023/08/16 00:08:12;;;;;;;6.93;3.20;;;;;;;;;;5013598;28;20040;-85
2023/08/16 00:10:38;;;;;;;8.43;3.13;;;;;;;;;;5030263;28;20029;-84
2023/08/16 00:13:03;;;;;;;6.57;3.40;;;;;;;;;;5013591;28;20021;-84
2023/08/16 00:15:29;;;;;;;6.80;3.10;;;;;;;;;;5030036;28;20033;-85
2023/08/16 00:17:54;;;;;;;9.63;3.83;;;;;;;;;;5031141;28;20030;-84
2023/08/16 00:20:20;;;;;;;4.95;3.28;;;;;;;;;;5029941;28;20049;-85
2023/08/16 00:22:45;;;;;;;5.50;2.97;;;;;;;;;;5013913;28;20046;-84
2023/08/16 00:25:11;;;;;;;3.75;3.03;;;;;;;;;;5030109;28;20100;-85
2023/08/16 00:27:37;;;;;;;9.30;3.42;;;;;;;;;;5031460;28;20034;-84
2023/08/16 00:30:04;;;;;;;7.47;3.60;;;;;;;;;;5029783;28;20058;-84
2023/08/16 00:32:30;;;;;;;9.20;3.10;;;;;;;;;;5029710;28;20143;-84
2023/08/16 00:34:55;;;;;;;11.13;3.40;;;;;;;;;;5029737;28;20116;-83
2023/08/16 00:37:21;;;;;;;5.00;3.28;;;;;;;;;;5030003;28;20028;-84
2023/08/16 00:39:46;;;;;;;7.32;3.50;;;;;;;;;;5033067;28;20484;-84
2023/08/16 00:42:12;;;;;;;6.32;3.15;;;;;;;;;;5017091;28;20025;-84
2023/08/16 00:44:37;;;;;;;8.00;3.08;;;;;;;;;;5033650;28;20057;-84
2023/08/16 00:47:03;;;;;;;5.88;2.80;;;;;;;;;;5033808;28;20388;-84
2023/08/16 00:49:28;;;;;;;6.40;3.30;;;;;;;;;;5033691;28;20046;-84
2023/08/16 00:51:54;;;;;;;5.75;3.20;;;;;;;;;;5033325;28;20029;-84
2023/08/16 00:54:19;;;;;;;8.13;3.17;;;;;;;;;;5017257;28;20044;-84
2023/08/16 00:56:45;;;;;;;6.10;2.60;;;;;;;;;;5033370;28;20025;-84
2023/08/16 00:59:10;;;;;;;5.22;2.70;;;;;;;;;;5033547;28;20129;-84
2023/08/16 01:01:38;;;;;;;6.88;2.75;;;;;;;;;;5017145;28;20041;-84
2023/08/16 01:04:04;;;;;;;5.72;2.95;;;;;;;;;;5033785;28;20037;-84
2023/08/16 01:06:30;;;;;;;7.43;3.05;;;;;;;;;;5034380;28;20029;-84
2023/08/16 01:08:55;;;;;;;8.55;3.13;;;;;;;;;;5033285;28;20070;-83
2023/08/16 01:11:40;;;;;;;7.82;3.33;;;;;;;;;;5033450;28;20080;-84
2023/08/16 01:14:08;;;;;;;6.88;2.40;;;;;;;;;;5034274;28;20060;-84
2023/08/16 01:16:34;;;;;;;6.82;2.28;;;;;;;;;;5016675;28;20476;-83
2023/08/16 01:18:59;;;;;;;7.82;2.80;;;;;;;;;;5016500;28;20040;-84
2023/08/16 01:21:25;;;;;;;5.68;2.60;;;;;;;;;;5016427;28;20267;-84
2023/08/16 01:24:06;;;;;;;6.85;2.42;;;;;;;;;;5016411;28;20385;-84
2023/08/16 01:26:35;;;;;;;9.10;2.70;;;;;;;;;;5017373;28;20030;-84
2023/08/16 01:29:01;;;;;;;6.63;2.58;;;;;;;;;;5016405;28;20033;-84
2023/08/16 01:31:26;;;;;;;5.35;2.50;;;;;;;;;;5032938;28;20033;-84
2023/08/16 01:33:52;;;;;;;5.97;2.60;;;;;;;;;;5016637;28;20060;-85
2023/08/16 01:36:17;;;;;;;6.47;3.00;;;;;;;;;;5016422;28;20035;-83
2023/08/16 01:38:43;;;;;;;8.05;2.75;;;;;;;;;;5016115;28;20116;-84
2023/08/16 01:41:11;;;;;;;4.57;3.00;;;;;;;;;;5032733;28;20079;-84
2023/08/16 01:43:36;;;;;;;8.55;2.75;;;;;;;;;;5032603;28;20049;-84
2023/08/16 01:46:03;;;;;;;6.13;2.75;;;;;;;;;;5033760;28;20065;-84
2023/08/16 01:48:28;;;;;;;6.80;3.17;;;;;;;;;;5016388;28;20040;-83
2023/08/16 01:50:54;;;;;;;6.85;3.10;;;;;;;;;;5033742;28;20390;-83
2023/08/16 01:53:19;;;;;;;4.60;2.83;;;;;;;;;;5033439;28;20037;-84
2023/08/16 01:55:45;;;;;;;6.00;3.80;;;;;;;;;;5015660;28;20112;-84
2023/08/16 01:58:10;;;;;;;8.63;4.30;;;;;;;;;;4999473;28;20018;-84
2023/08/16 02:00:36;;;;;;;9.82;3.40;;;;;;;;;;5015545;28;20056;-84
2023/08/16 02:03:02;;;;;;;6.80;3.10;;;;;;;;;;5033725;28;20053;-84
2023/08/16 02:05:28;;;;;;;11.95;5.35;;;;;;;;;;5032471;28;20069;-84
2023/08/16 02:07:53;;;;;;;6.80;3.63;;;;;;;;;;5033388;28;20025;-84
2023/08/16 02:10:19;;;;;;;5.47;3.40;;;;;;;;;;5015500;28;20124;-84
2023/08/16 02:12:46;;;;;;;5.03;3.17;;;;;;;;;;5031929;28;20060;-84
2023/08/16 02:15:11;;;;;;;14.98;3.42;;;;;;;;;;5031879;28;20060;-84
2023/08/16 02:17:37;;;;;;;6.32;3.05;;;;;;;;;;5032124;28;20527;-84
2023/08/16 02:20:04;;;;;;;4.70;2.85;;;;;;;;;;5032004;28;20062;-83
2023/08/16 02:22:29;;;;;;;4.82;2.92;;;;;;;;;;5015551;28;20037;-84
2023/08/16 02:24:55;;;;;;;7.55;3.10;;;;;;;;;;5032321;28;20445;-84
2023/08/16 02:27:20;;;;;;;8.32;3.47;;;;;;;;;;5031866;28;20507;-83
2023/08/16 02:29:46;;;;;;;6.32;3.30;;;;;;;;;;5015718;28;20721;-83
2023/08/16 02:32:11;;;;;;;5.95;3.42;;;;;;;;;;5031774;28;20025;-84
2023/08/16 02:34:37;;;;;;;9.73;3.13;;;;;;;;;;5031968;28;20033;-84
2023/08/16 02:37:05;;;;;;;5.60;3.42;;;;;;;;;;5015429;28;20021;-84
2023/08/16 02:39:30;;;;;;;10.25;3.88;;;;;;;;;;5032952;28;20048;-84
2023/08/16 02:41:55;;;;;;;6.22;3.70;;;;;;;;;;5014866;28;20033;-84
2023/08/16 02:44:21;;;;;;;5.93;3.30;;;;;;;;;;5031560;28;20033;-84
2023/08/16 02:46:46;;;;;;;8.10;3.47;;;;;;;;;;5031361;28;20022;-85
2023/08/16 02:49:12;;;;;;;6.18;3.35;;;;;;;;;;5015193;28;20052;-84
2023/08/16 02:51:38;;;;;;;7.72;3.50;;;;;;;;;;5031112;28;20480;-84
2023/08/16 02:54:03;;;;;;;8.48;3.90;;;;;;;;;;5031356;28;20043;-84
2023/08/16 02:56:29;;;;;;;6.00;3.22;;;;;;;;;;5031090;28;20036;-84
2023/08/16 02:58:54;;;;;;;6.47;3.10;;;;;;;;;;5032468;28;20033;-83
2023/08/16 03:01:20;;;;;;;5.85;3.40;;;;;;;;;;5030392;28;20512;-84
2023/08/16 03:03:46;;;;;;;7.32;3.30;;;;;;;;;;5032703;28;20037;-84
2023/08/16 03:06:11;;;;;;;6.55;3.45;;;;;;;;;;5032368;28;20064;-84
2023/08/16 03:08:37;;;;;;;8.52;3.00;;;;;;;;;;5014843;28;20496;-84
2023/08/16 03:11:02;;;;;;;5.85;3.13;;;;;;;;;;5031147;28;20039;-84
2023/08/16 03:13:28;;;;;;;6.28;3.03;;;;;;;;;;5032088;28;20222;-85
2023/08/16 03:15:54;;;;;;;13.52;5.40;;;;;;;;;;5031064;28;20427;-83
2023/08/16 03:18:19;;;;;;;7.15;3.92;;;;;;;;;;5030805;28;20485;-84
2023/08/16 03:20:45;;;;;;;10.32;3.42;;;;;;;;;;5014146;28;20462;-84
2023/08/16 03:23:12;;;;;;;5.53;2.85;;;;;;;;;;5014453;28;20408;-85
2023/08/16 03:25:38;;;;;;;7.53;3.10;;;;;;;;;;5030657;28;20497;-84
2023/08/16 03:28:04;;;;;;;10.10;3.00;;;;;;;;;;5030654;28;20048;-85
2023/08/16 03:30:29;;;;;;;5.78;3.15;;;;;;;;;;5014690;28;20083;-85
2023/08/16 03:32:55;;;;;;;8.02;3.50;;;;;;;;;;5030987;28;20038;-85
2023/08/16 03:35:21;;;;;;;5.22;2.80;;;;;;;;;;5014596;28;20032;-85
2023/08/16 03:37:46;;;;;;;5.88;2.60;;;;;;;;;;5030953;28;20145;-85
2023/08/16 03:40:14;;;;;;;6.70;2.80;;;;;;;;;;5014723;28;20033;-85
2023/08/16 03:42:40;;;;;;;10.93;2.70;;;;;;;;;;5014653;28;20127;-85
2023/08/16 03:45:05;;;;;;;6.38;2.70;;;;;;;;;;5031050;28;20144;-85
2023/08/16 03:47:33;;;;;;;12.20;3.00;;;;;;;;;;5030892;28;20037;-84
2023/08/16 03:49:59;;;;;;;7.13;3.25;;;;;;;;;;5032085;28;20091;-84
2023/08/16 03:52:25;;;;;;;6.80;2.60;;;;;;;;;;5031107;28;20101;-85
2023/08/16 03:54:54;;;;;;;5.38;2.22;;;;;;;;;;4998232;28;20025;-85
2023/08/16 03:57:21;;;;;;;5.15;2.55;;;;;;;;;;5031888;28;20471;-86
2023/08/16 03:59:47;;;;;;;5.97;2.60;;;;;;;;;;5014104;28;20492;-85
2023/08/16 04:02:12;;;;;;;7.70;2.40;;;;;;;;;;5031774;28;20033;-83
2023/08/16 04:04:38;;;;;;;6.88;3.72;;;;;;;;;;5014119;28;20462;-84
2023/08/16 04:07:04;;;;;;;4.82;2.58;;;;;;;;;;5014405;28;20611;-84
2023/08/16 04:09:29;;;;;;;6.68;2.30;;;;;;;;;;5031948;28;20033;-84
2023/08/16 04:11:55;;;;;;;5.35;2.35;;;;;;;;;;5014118;28;20124;-84
2023/08/16 04:14:21;;;;;;;6.38;2.08;;;;;;;;;;5033290;28;20113;-84
2023/08/16 04:16:46;;;;;;;11.07;2.40;;;;;;;;;;5034480;28;20036;-85
2023/08/16 04:19:12;;;;;;;4.78;2.67;;;;;;;;;;5017782;28;20025;-85
2023/08/16 04:21:38;;;;;;;6.00;2.17;;;;;;;;;;5034315;28;20033;-85
2023/08/16 04:24:04;;;;;;;8.88;2.20;;;;;;;;;;5018238;28;20078;-85
2023/08/16 04:26:29;;;;;;;6.85;2.60;;;;;;;;;;5018334;28;20120;-85
2023/08/16 04:28:55;;;;;;;6.53;2.30;;;;;;;;;;5018017;28;20018;-85
2023/08/16 04:31:20;;;;;;;4.10;1.75;;;;;;;;;;5001268;28;20037;-84
2023/08/16 04:33:46;;;;;;;13.75;2.92;;;;;;;;;;5034274;28;20507;-85
2023/08/16 04:36:12;;;;;;;4.47;2.30;;;;;;;;;;5033635;28;20491;-84
2023/08/16 04:38:37;;;;;;;6.82;2.25;;;;;;;;;;5034389;28;20083;-85
2023/08/16 04:41:03;;;;;;;10.68;3.30;;;;;;;;;;5017697;28;20144;-85
2023/08/16 04:43:28;;;;;;;9.20;4.05;;;;;;;;;;5035249;28;20518;-85
2023/08/16 04:45:54;;;;;;;10.38;3.40;;;;;;;;;;5017228;28;20677;-84
2023/08/16 04:48:19;;;;;;;13.15;3.42;;;;;;;;;;5000976;28;20476;-85
2023/08/16 04:50:45;;;;;;;8.32;2.90;;;;;;;;;;5017130;28;20408;-86
2023/08/16 04:53:12;;;;;;;9.25;3.25;;;;;;;;;;5034729;28;20040;-85
2023/08/16 04:55:39;;;;;;;7.82;2.50;;;;;;;;;;5033418;28;20128;-85
2023/08/16 04:58:06;;;;;;;7.80;2.85;;;;;;;;;;5033392;28;20022;-84
2023/08/16 05:00:33;;;;;;;7.07;2.53;;;;;;;;;;5033454;28;20034;-85
2023/08/16 05:03:01;;;;;;;11.95;3.95;;;;;;;;;;5017333;28;20030;-84
2023/08/16 05:05:29;;;;;;;5.72;3.47;;;;;;;;;;5033115;28;20042;-84
2023/08/16 05:07:55;;;;;;;9.60;3.00;;;;;;;;;;5033235;28;20037;-84
2023/08/16 05:10:20;;;;;;;12.95;2.80;;;;;;;;;;5033249;28;20484;-85
2023/08/16 05:12:46;;;;;;;8.70;2.75;;;;;;;;;;5033158;28;20029;-85
2023/08/16 05:15:11;;;;;;;6.35;2.15;;;;;;;;;;5016453;28;20037;-85
2023/08/16 05:17:37;;;;;;;8.43;2.60;;;;;;;;;;5016557;28;20044;-84
2023/08/16 05:20:04;;;;;;;6.65;2.35;;;;;;;;;;4999946;28;20076;-84
2023/08/16 05:22:29;;;;;;;8.95;2.90;;;;;;;;;;5033144;28;20033;-85
2023/08/16 05:24:55;;;;;;;13.98;3.75;;;;;;;;;;5032398;28;20459;-84
2023/08/16 05:27:20;;;;;;;9.15;3.35;;;;;;;;;;5034043;28;20598;-84
2023/08/16 05:29:46;;;;;;;11.27;2.50;;;;;;;;;;5033103;28;20037;-84
2023/08/16 05:32:12;;;;;;;9.32;2.40;;;;;;;;;;5016031;28;20120;-84
2023/08/16 05:34:38;;;;;;;9.00;2.75;;;;;;;;;;5032754;28;20192;-85
2023/08/16 05:37:05;;;;;;;6.38;2.40;;;;;;;;;;5033876;28;20026;-85
2023/08/16 05:39:31;;;;;;;7.78;2.35;;;;;;;;;;5016340;28;20055;-85
2023/08/16 05:41:56;;;;;;;8.48;2.40;;;;;;;;;;5032770;28;20518;-85
2023/08/16 05:44:22;;;;;;;6.30;2.67;;;;;;;;;;5034017;28;20056;-84
2023/08/16 05:46:47;;;;;;;7.28;2.88;;;;;;;;;;5034515;28;20079;-85
2023/08/16 05:49:12;;;;;;;5.82;2.60;;;;;;;;;;5032582;28;20037;-85
2023/08/16 05:51:38;;;;;;;5.22;2.00;;;;;;;;;;5032150;28;20026;-84
2023/08/16 05:54:04;;;;;;;9.05;2.50;;;;;;;;;;5032497;28;20111;-83
2023/08/16 05:56:29;;;;;;;6.90;2.50;;;;;;;;;;5033178;28;20033;-84
2023/08/16 05:58:55;;;;;;;10.18;2.70;;;;;;;;;;5032129;28;20041;-84
2023/08/16 06:01:21;;;;;;;4.40;2.50;;;;;;;;;;5033359;28;20025;-84
2023/08/16 06:03:47;;;;;;;6.78;2.63;;;;;;;;;;5033706;28;20473;-84
2023/08/16 06:06:12;;;;;;;5.30;2.00;;;;;;;;;;5032310;28;20095;-84
2023/08/16 06:08:38;;;;;;;8.00;3.15;;;;;;;;;;5015695;28;20041;-84
2023/08/16 06:11:03;;;;;;;7.00;2.35;;;;;;;;;;5015350;28;20496;-84
2023/08/16 06:13:29;;;;;;;6.60;2.28;;;;;;;;;;5031810;28;20040;-85
2023/08/16 06:15:54;;;;;;;6.55;2.53;;;;;;;;;;5032207;28;20500;-85
2023/08/16 06:18:20;;;;;;;5.85;2.53;;;;;;;;;;5033264;28;20029;-83
2023/08/16 06:20:45;;;;;;;7.40;2.42;;;;;;;;;;5015572;28;20476;-84
2023/08/16 06:23:11;;;;;;;3.88;2.00;;;;;;;;;;5033130;28;20041;-84
2023/08/16 06:25:36;;;;;;;6.32;1.80;;;;;;;;;;5015287;28;20549;-83
2023/08/16 06:28:02;;;;;;;6.40;1.80;;;;;;;;;;5032778;28;20067;-84
2023/08/16 06:30:28;;;;;;;10.30;2.33;;;;;;;;;;5032732;28;20396;-83
2023/08/16 06:33:21;;;;;;;7.47;2.10;;;;;;;;;;5032764;28;20045;-84
2023/08/16 06:35:47;;;;;;;3.78;1.75;;;;;;;;;;5031772;28;20544;-81
2023/08/16 06:38:13;;;;;;;2.97;1.50;;;;;;;;;;5032464;28;20113;-84
2023/08/16 06:40:38;;;;;;;2.72;1.60;;;;;;;;;;5031413;28;20065;-84
2023/08/16 06:43:04;;;;;;;4.22;1.80;;;;;;;;;;5032656;28;20060;-84
2023/08/16 06:45:29;;;;;;;2.53;1.50;;;;;;;;;;5032337;28;20048;-84
2023/08/16 06:47:55;;;;;;;2.75;1.52;;;;;;;;;;5032389;28;20037;-84
2023/08/16 06:50:20;;;;;;;2.80;1.60;;;;;;;;;;5032334;28;20123;-84
2023/08/16 06:52:46;;;;;;;4.43;1.63;;;;;;;;;;5032664;28;20068;-85
2023/08/16 06:55:11;;;;;;;2.50;1.55;;;;;;;;;;5031423;28;20128;-84
2023/08/16 06:57:38;;;;;;;3.08;1.80;;;;;;;;;;5014722;28;20025;-84
2023/08/16 07:00:04;;;;;;;5.32;2.40;;;;;;;;;;5032165;28;20034;-84
2023/08/16 07:02:29;;;;;;;2.58;1.70;;;;;;;;;;5030805;28;20530;-85
2023/08/16 07:04:55;;;;;;;3.92;1.45;;;;;;;;;;5031983;28;20079;-84
2023/08/16 07:07:20;;;;;;;2.97;1.30;;;;;;;;;;5032164;28;20037;-85
2023/08/16 07:09:45;;;;;;;3.17;1.73;;;;;;;;;;5030849;28;20034;-84
2023/08/16 07:12:11;;;;;;;3.08;1.20;;;;;;;;;;5014020;28;20032;-84
2023/08/16 07:14:36;;;;;;;2.28;1.42;;;;;;;;;;5030603;28;20041;-84
2023/08/16 07:17:05;;;;;;;2.88;1.50;;;;;;;;;;5031885;28;20036;-84
2023/08/16 07:19:30;;;;;;;5.30;1.45;;;;;;;;;;5030786;28;20049;-84
2023/08/16 07:21:56;;;;;;;4.40;1.42;;;;;;;;;;5031813;28;20048;-84
2023/08/16 07:24:21;;;;;;;2.45;1.45;;;;;;;;;;5032402;28;20030;-84
2023/08/16 07:26:48;;;;;;;3.30;1.67;;;;;;;;;;5014423;28;20053;-84
2023/08/16 07:29:14;;;;;;;2.33;1.30;;;;;;;;;;5030997;28;20479;-85
2023/08/16 07:31:39;;;;;;;4.00;1.70;;;;;;;;;;5031835;28;20037;-85
2023/08/16 07:34:04;;;;;;;2.53;1.40;;;;;;;;;;5031704;28;20041;-85
2023/08/16 07:36:30;;;;;;;2.15;1.25;;;;;;;;;;5032187;28;20025;-85
2023/08/16 07:38:55;;;;;;;3.45;1.63;;;;;;;;;;5030987;28;20406;-86
2023/08/16 07:41:21;;;;;;;4.75;1.92;;;;;;;;;;5014711;28;20447;-84
2023/08/16 07:43:46;;;;;;;4.70;1.70;;;;;;;;;;5014129;28;20487;-84
2023/08/16 07:46:12;;;;;;;4.85;1.63;;;;;;;;;;5030550;28;20465;-85
2023/08/16 07:48:38;;;;;;;4.05;1.27;;;;;;;;;;5031518;28;20057;-85
2023/08/16 07:51:03;;;;;;;2.83;1.48;;;;;;;;;;5030735;28;20033;-85
2023/08/16 07:53:29;;;;;;;2.88;1.40;;;;;;;;;;5031491;28;20373;-85
2023/08/16 07:55:54;;;;;;;4.22;1.67;;;;;;;;;;5030389;28;20037;-85
2023/08/16 07:58:20;;;;;;;3.60;1.63;;;;;;;;;;5014000;28;20029;-85
2023/08/16 08:00:46;;;;;;;3.80;1.55;;;;;;;;;;5030314;28;20034;-85
2023/08/16 08:03:11;;;;;;;3.35;1.30;;;;;;;;;;5031694;28;20434;-85
2023/08/16 08:05:37;;;;;;;4.25;1.23;;;;;;;;;;5030499;28;20042;-86
2023/08/16 08:08:04;;;;;;;2.30;1.30;;;;;;;;;;5031402;28;20113;-85
2023/08/16 08:10:31;;;;;;;5.30;1.30;;;;;;;;;;5030442;28;20061;-86
2023/08/16 08:12:57;;;;;;;4.28;1.30;;;;;;;;;;5030242;28;20511;-85
2023/08/16 08:15:22;;;;;;;5.95;1.65;;;;;;;;;;5030552;28;20037;-84
2023/08/16 08:17:48;;;;;;;3.05;1.17;;;;;;;;;;5030389;28;20028;-86
2023/08/16 08:20:14;;;;;;;3.10;1.45;;;;;;;;;;5031111;28;20107;-84
2023/08/16 08:22:40;;;;;;;2.63;1.35;;;;;;;;;;5013937;28;20129;-86
2023/08/16 08:25:05;;;;;;;4.43;1.40;;;;;;;;;;5030430;28;20069;-86
2023/08/16 08:27:31;;;;;;;2.20;1.05;;;;;;;;;;5030283;28;20033;-84
2023/08/16 08:29:56;;;;;;;3.15;1.10;;;;;;;;;;5030049;28;20488;-84
2023/08/16 08:32:22;;;;;;;1.95;1.20;;;;;;;;;;5031192;28;20060;-85
2023/08/16 08:34:47;;;;;;;3.78;1.40;;;;;;;;;;5030012;28;20124;-84
2023/08/16 08:37:13;;;;;;;4.35;1.30;;;;;;;;;;5030736;28;20480;-84
2023/08/16 08:39:38;;;;;;;3.63;1.55;;;;;;;;;;5031241;28;20060;-84
2023/08/16 08:42:04;;;;;;;7.63;1.50;;;;;;;;;;5030829;28;20034;-84
2023/08/16 08:44:30;;;;;;;2.22;1.40;;;;;;;;;;5029575;28;20041;-84
2023/08/16 08:46:55;;;;;;;2.15;1.10;;;;;;;;;;5012970;28;20034;-84
2023/08/16 08:49:21;;;;;;;3.30;1.30;;;;;;;;;;5029624;28;20111;-84
2023/08/16 08:51:46;;;;;;;1.95;1.08;;;;;;;;;;5030820;28;20021;-84
2023/08/16 08:54:11;;;;;;;3.33;1.20;;;;;;;;;;5029484;28;20037;-84
2023/08/16 08:56:37;;;;;;;5.70;1.30;;;;;;;;;;5030645;28;20503;-84
2023/08/16 08:59:03;;;;;;;3.33;1.60;;;;;;;;;;5029785;28;20029;-85
2023/08/16 09:01:29;;;;;;;4.03;1.10;;;;;;;;;;5034426;28;20029;-85
2023/08/16 09:03:56;;;;;;;3.47;1.35;;;;;;;;;;5034903;28;20447;-85
2023/08/16 09:06:21;;;;;;;2.15;1.00;;;;;;;;;;5033453;28;20088;-84
2023/08/16 09:08:47;;;;;;;2.17;1.00;;;;;;;;;;5033097;28;20033;-84
2023/08/16 09:11:13;;;;;;;5.30;1.42;;;;;;;;;;5033330;28;20891;-84
2023/08/16 09:13:39;;;;;;;1.88;1.17;;;;;;;;;;5033193;28;20037;-85
2023/08/16 09:16:04;;;;;;;4.53;1.30;;;;;;;;;;5032932;28;20480;-84
2023/08/16 09:18:30;;;;;;;5.05;1.85;;;;;;;;;;5034481;28;20029;-85
2023/08/16 09:20:59;;;;;;;2.17;1.20;;;;;;;;;;5032877;28;20060;-85
2023/08/16 09:23:25;;;;;;;1.75;0.98;;;;;;;;;;5016483;28;20117;-85
2023/08/16 09:25:51;;;;;;;3.13;1.33;;;;;;;;;;5033833;28;20045;-85
2023/08/16 09:28:16;;;;;;;1.60;1.10;;;;;;;;;;5032595;28;20033;-86
2023/08/16 09:30:42;;;;;;;4.18;1.40;;;;;;;;;;5032406;28;20068;-85
2023/08/16 09:33:07;;;;;;;2.85;1.30;;;;;;;;;;5033881;28;20022;-85
2023/08/16 09:35:33;;;;;;;2.42;1.27;;;;;;;;;;5015966;28;20470;-85
2023/08/16 09:37:59;;;;;;;2.38;1.23;;;;;;;;;;5015915;28;20083;-85
2023/08/16 09:40:25;;;;;;;3.25;1.27;;;;;;;;;;5033485;28;20377;-84
2023/08/16 09:42:50;;;;;;;2.08;1.30;;;;;;;;;;5032135;28;20059;-84
2023/08/16 09:45:25;;;;;;;2.70;1.40;;;;;;;;;;5033401;28;20133;-84
2023/08/16 09:47:50;;;;;;;2.70;1.20;;;;;;;;;;5032243;28;20041;-85
2023/08/16 09:50:21;;;;;;;3.15;1.40;;;;;;;;;;5033477;28;20322;-85
2023/08/16 09:52:47;;;;;;;4.57;0.98;;;;;;;;;;5032469;28;20554;-84
2023/08/16 09:55:21;;;;;;;6.88;1.20;;;;;;;;;;5015577;28;20395;-85
2023/08/16 09:57:47;;;;;;;1.73;1.00;;;;;;;;;;5015819;28;20033;-84
2023/08/16 10:00:12;;;;;;;4.75;1.27;;;;;;;;;;5032280;28;20029;-85
2023/08/16 10:02:41;;;;;;;2.13;0.93;;;;;;;;;;5032708;28;20049;-84
2023/08/16 10:05:06;;;;;;;4.32;1.10;;;;;;;;;;5032398;28;20037;-85
2023/08/16 10:07:32;;;;;;;2.30;1.00;;;;;;;;;;5033375;28;20065;-84
2023/08/16 10:09:57;;;;;;;4.35;2.78;;;;;;;;;;5015050;28;20017;-86
2023/08/16 10:12:23;;;;;;;3.60;1.50;;;;;;;;;;5030917;28;20120;-86
2023/08/16 10:14:48;;;;;;;2.55;1.33;;;;;;;;;;5031840;28;20459;-85
2023/08/16 10:17:14;;;;;;;4.72;1.17;;;;;;;;;;5032001;28;20029;-85
2023/08/16 10:19:39;;;;;;;4.07;1.10;;;;;;;;;;5031564;28;20077;-85
2023/08/16 10:22:07;;;;;;;2.92;1.20;;;;;;;;;;5031728;28;20136;-85
2023/08/16 10:24:33;;;;;;;2.28;1.23;;;;;;;;;;4998802;28;20487;-85
2023/08/16 10:26:59;;;;;;;3.70;1.10;;;;;;;;;;5032913;28;20065;-85
2023/08/16 10:29:24;;;;;;;3.00;1.17;;;;;;;;;;5031495;28;20115;-85
2023/08/16 10:31:51;;;;;;;3.17;1.10;;;;;;;;;;5032410;28;20037;-85
2023/08/16 10:34:16;;;;;;;3.05;1.13;;;;;;;;;;5015130;28;20112;-85
2023/08/16 10:36:42;;;;;;;3.05;1.42;;;;;;;;;;5033099;28;20053;-84
2023/08/16 10:39:08;;;;;;;2.55;0.88;;;;;;;;;;5031318;28;20492;-84
2023/08/16 10:41:43;;;;;;;4.38;1.35;;;;;;;;;;5031479;28;20037;-83
2023/08/16 10:44:09;;;;;;;1.40;0.80;;;;;;;;;;5015344;28;20496;-85
2023/08/16 10:46:35;;;;;;;2.25;1.10;;;;;;;;;;5032508;28;20027;-85
2023/08/16 10:49:01;;;;;;;3.13;1.20;;;;;;;;;;5031412;28;20033;-85
2023/08/16 10:51:27;;;;;;;9.75;1.30;;;;;;;;;;5032803;28;20033;-85
2023/08/16 10:53:56;;;;;;;4.20;0.85;;;;;;;;;;5031327;28;20041;-84
2023/08/16 10:56:21;;;;;;;3.25;1.10;;;;;;;;;;5032139;28;20444;-84
2023/08/16 10:58:47;;;;;;;3.28;0.98;;;;;;;;;;5031238;28;20064;-84
2023/08/16 11:01:13;;;;;;;4.30;1.20;;;;;;;;;;5014993;28;20033;-85
2023/08/16 11:03:39;;;;;;;4.78;1.08;;;;;;;;;;5031155;28;20550;-84
2023/08/16 11:06:08;;;;;;;4.97;1.23;;;;;;;;;;5031260;28;20033;-85
2023/08/16 11:08:34;;;;;;;3.95;1.10;;;;;;;;;;5030943;28;20037;-85
2023/08/16 11:11:03;;;;;;;2.22;0.98;;;;;;;;;;5014899;28;20033;-85
2023/08/16 11:13:28;;;;;;;3.17;1.10;;;;;;;;;;5031793;28;20037;-85
2023/08/16 11:15:54;;;;;;;2.22;1.13;;;;;;;;;;5032344;28;20032;-85
2023/08/16 11:18:28;;;;;;;2.45;1.10;;;;;;;;;;5014340;28;20072;-85
2023/08/16 11:20:53;;;;;;;2.67;1.42;;;;;;;;;;5013836;28;20060;-85
2023/08/16 11:23:19;;;;;;;2.60;1.10;;;;;;;;;;5030356;28;20046;-84
2023/08/16 11:25:45;;;;;;;2.30;1.30;;;;;;;;;;5030677;28;20037;-85
2023/08/16 11:28:10;;;;;;;2.72;1.35;;;;;;;;;;5032057;28;20105;-86
2023/08/16 11:30:36;;;;;;;3.60;1.33;;;;;;;;;;5031837;28;20144;-85
2023/08/16 11:33:01;;;;;;;4.35;1.00;;;;;;;;;;5030691;28;20028;-84
2023/08/16 11:35:27;;;;;;;1.35;0.90;;;;;;;;;;5030501;28;20033;-85
2023/08/16 11:37:52;;;;;;;2.47;1.00;;;;;;;;;;5031528;28;20116;-85
2023/08/16 11:40:24;;;;;;;5.05;1.10;;;;;;;;;;5030484;28;20539;-85
2023/08/16 11:42:52;;;;;;;3.05;0.82;;;;;;;;;;5030563;28;20111;-85
2023/08/16 11:45:18;;;;;;;2.88;0.73;;;;;;;;;;5013966;28;20477;-85
2023/08/16 11:47:44;;;;;;;2.33;1.00;;;;;;;;;;5031784;28;20041;-85
2023/08/16 11:50:09;;;;;;;1.58;0.80;;;;;;;;;;5014076;28;20474;-86
2023/08/16 11:52:35;;;;;;;3.97;1.10;;;;;;;;;;5031330;28;20087;-85
2023/08/16 11:55:08;;;;;;;6.32;1.10;;;;;;;;;;5014081;28;20083;-84
2023/08/16 11:57:42;;;;;;;3.20;0.85;;;;;;;;;;5013955;28;20496;-85
2023/08/16 12:00:07;;;;;;;;;;;;;;;;;;5014490;28;20030;-85
2023/08/16 12:02:34;;;;;;;1.77;0.88;;;;;;;;;;5031798;28;19916;-85
2023/08/16 12:05:03;;;;;;;1.23;0.80;;;;;;;;;;5029709;28;20500;-85
2023/08/16 12:07:29;;;;;;;3.88;1.10;;;;;;;;;;5013707;28;20500;-85
2023/08/16 12:09:54;;;;;;;4.90;1.13;;;;;;;;;;5031324;28;20095;-85
2023/08/16 12:12:20;;;;;;;2.58;0.88;;;;;;;;;;5031319;28;20033;-85
2023/08/16 12:14:45;;;;;;;2.55;0.85;;;;;;;;;;5031277;28;20057;-85
2023/08/16 12:17:11;;;;;;;1.75;0.80;;;;;;;;;;5013879;28;20550;-85
2023/08/16 12:19:36;;;;;;;4.65;1.13;;;;;;;;;;5031041;28;20516;-86
2023/08/16 12:22:02;;;;;;;2.45;1.13;;;;;;;;;;5030009;28;20033;-86
2023/08/16 12:24:27;;;;;;;1.08;0.70;;;;;;;;;;5031392;28;20072;-85
2023/08/16 12:26:53;;;;;;;4.10;0.90;;;;;;;;;;5031068;28;20064;-85
2023/08/16 12:29:18;;;;;;;1.85;0.90;;;;;;;;;;5013792;28;20048;-85
2023/08/16 12:31:43;;;;;;;1.65;1.13;;;;;;;;;;5030966;28;20036;-85
2023/08/16 12:34:09;;;;;;;3.38;1.00;;;;;;;;;;5031768;28;20524;-86
2023/08/16 12:36:34;;;;;;;2.95;0.90;;;;;;;;;;5034902;28;20108;-85
2023/08/16 12:39:00;;;;;;;1.95;0.80;;;;;;;;;;5034626;28;20060;-86
2023/08/16 12:41:26;;;;;;;1.60;0.80;;;;;;;;;;5035164;28;20025;-83
2023/08/16 12:43:51;;;;;;;2.45;1.10;;;;;;;;;;5034939;28;20029;-86
2023/08/16 12:46:17;;;;;;;2.60;1.05;;;;;;;;;;5035318;28;20047;-85
2023/08/16 12:48:42;;;;;;;4.20;1.10;;;;;;;;;;5034895;28;20408;-85
2023/08/16 12:51:08;;;;;;;2.05;0.90;;;;;;;;;;5033582;28;20029;-85
2023/08/16 12:53:34;;;;;;;1.80;1.15;;;;;;;;;;5034633;28;20160;-85
2023/08/16 12:55:59;;;;;;;2.90;1.30;;;;;;;;;;5034650;28;20056;-85
2023/08/16 12:58:25;;;;;;;2.63;0.90;;;;;;;;;;5033364;28;20045;-85
2023/08/16 13:00:50;;;;;;;2.58;1.23;;;;;;;;;;5033502;28;20037;-85
2023/08/16 13:03:16;;;;;;;1.65;0.70;;;;;;;;;;5033758;28;20068;-85
2023/08/16 13:05:41;;;;;;;1.85;0.90;;;;;;;;;;5016784;28;20065;-85
2023/08/16 13:08:07;;;;;;;2.25;1.00;;;;;;;;;;5032814;28;20087;-85
2023/08/16 13:10:32;;;;;;;3.25;1.00;;;;;;;;;;5033106;28;20065;-85
2023/08/16 13:12:59;;;;;;;3.45;1.10;;;;;;;;;;5034120;28;20048;-85
2023/08/16 13:15:24;;;;;;;3.53;1.00;;;;;;;;;;5034044;28;20029;-85
2023/08/16 13:17:50;;;;;;;4.22;1.02;;;;;;;;;;5032891;28;20040;-85
2023/08/16 13:20:16;;;;;;;3.47;1.13;;;;;;;;;;5034334;28;20073;-85
2023/08/16 13:22:41;;;;;;;4.70;0.90;;;;;;;;;;5032694;28;20069;-84
2023/08/16 13:25:07;;;;;;;1.85;1.05;;;;;;;;;;5032657;28;20042;-84
2023/08/16 13:27:32;;;;;;;2.60;0.95;;;;;;;;;;5032414;28;20556;-84
2023/08/16 13:29:58;;;;;;;2.20;1.10;;;;;;;;;;4999866;28;20052;-84
2023/08/16 13:32:24;;;;;;;3.15;1.60;;;;;;;;;;5032600;28;20044;-85
2023/08/16 13:34:49;;;;;;;4.68;1.10;;;;;;;;;;5032609;28;20179;-85
2023/08/16 13:37:15;;;;;;;2.22;1.00;;;;;;;;;;5033871;28;20452;-85
2023/08/16 13:39:40;;;;;;;1.70;0.90;;;;;;;;;;5032756;28;20113;-85
2023/08/16 13:42:06;;;;;;;3.97;1.00;;;;;;;;;;5016302;28;20037;-84
2023/08/16 13:44:31;;;;;;;2.22;0.85;;;;;;;;;;5032629;28;20115;-84
2023/08/16 13:46:57;;;;;;;2.35;0.95;;;;;;;;;;5033273;28;20492;-85
2023/08/16 13:49:22;;;;;;;2.85;0.95;;;;;;;;;;5033736;28;20496;-85
2023/08/16 13:51:48;;;;;;;2.20;1.00;;;;;;;;;;5032203;28;20179;-85
2023/08/16 13:54:13;;;;;;;2.08;1.00;;;;;;;;;;5032524;28;20029;-84
2023/08/16 13:56:39;;;;;;;4.90;1.15;;;;;;;;;;5015514;28;20400;-85
2023/08/16 13:59:04;;;;;;;2.40;0.80;;;;;;;;;;5033661;28;20018;-85
2023/08/16 14:01:30;;;;;;;4.18;0.90;;;;;;;;;;5033381;28;20124;-85
2023/08/16 14:03:55;;;;;;;1.98;1.00;;;;;;;;;;5032320;28;20423;-85
2023/08/16 14:06:21;;;;;;;2.60;0.70;;;;;;;;;;5032014;28;20500;-85
2023/08/16 14:08:46;;;;;;;1.20;0.70;;;;;;;;;;5034355;28;20116;-85
2023/08/16 14:11:11;;;;;;;2.05;0.98;;;;;;;;;;5032304;28;20128;-85
2023/08/16 14:13:37;;;;;;;4.88;1.23;;;;;;;;;;5032557;28;20451;-84
2023/08/16 14:16:03;;;;;;;6.38;1.02;;;;;;;;;;5033347;28;20132;-85
2023/08/16 14:18:28;;;;;;;2.88;0.70;;;;;;;;;;5032344;28;20029;-85
2023/08/16 14:20:54;;;;;;;2.97;1.10;;;;;;;;;;5015296;28;20050;-85
2023/08/16 14:23:19;;;;;;;5.50;1.10;;;;;;;;;;5031965;28;20064;-85
2023/08/16 14:25:46;;;;;;;3.88;1.17;;;;;;;;;;5033059;28;20103;-85
2023/08/16 14:28:11;;;;;;;1.83;0.82;;;;;;;;;;5032770;28;20025;-85
2023/08/16 14:30:40;;;;;;;3.72;1.08;;;;;;;;;;5032899;28;20045;-85
2023/08/16 14:33:07;;;;;;;2.40;1.00;;;;;;;;;;5015580;28;20036;-85
2023/08/16 14:35:33;;;;;;;1.90;1.00;;;;;;;;;;5015086;28;20090;-85